Terminal Aerodrome Forecast
Issued by NWS

Home | Current Version | Previous Version | Text Only | Print | Product List | Glossary On
Versions: 1 2 3 4 5 6 7 8 9 10 11 12 13
000
FTUS42 KGSP 301915 AAA
TAFGMU
TAF AMD
KGMU 301915Z 3019/0118 10006KT P6SM BKN045
      TEMPO 3019/3023 VRB10G20KT 4SM -TSRA OVC030CB
     FM010000 09006KT P6SM -SHRA VCTS OVC015CB
     FM010300 11006KT 4SM -SHRA BR VCTS BKN007 OVC012CB
     FM010600 18007KT 3SM -SHRA BR OVC003
     FM011100 19007KT P6SM SCT008 OVC070
     FM011300 20008KT P6SM OVC070=

USA.gov is the U.S. government's official web portal to all federal, state and local government web resources and services.